Terminal Aerodrome Forecast
Issued by NWS Kansas City/Pleasant Hill, MO

Home | Current Version | Previous Version | Text Only | Print | Product List | Glossary On
Versions: 1 2 3 4 5 6 7 8 9 10 11 12 13 14 15 16
790
FTUS43 KEAX 192320
TAFMCI
TAF
KMCI 192320Z 2000/2024 16007KT P6SM SCT035 BKN200
     FM200900 17010KT 5SM -SHRA BR OVC025
     FM201400 18011KT P6SM VCSH OVC015
     FM201800 20012KT P6SM BKN060=

USA.gov is the U.S. government's official web portal to all federal, state and local government web resources and services.